createdAt,value
2022-09-23T00:00:45.997Z,99926.34
2022-09-23T00:01:50.197Z,99939.81
2022-09-23T00:02:52.455Z,99936.25
2022-09-23T00:03:56.540Z,99934.66
2022-09-23T00:05:00.014Z,99933.06
2022-09-23T00:06:05.523Z,99937.03
2022-09-23T00:07:09.815Z,99937.84
2022-09-23T00:08:14.595Z,99933.06
2022-09-23T00:09:17.572Z,99941.78
2022-09-23T00:10:19.741Z,99936.66
2022-09-23T00:11:27.606Z,99939.44
2022-09-23T00:12:29.656Z,99927.53
2022-09-23T00:13:31.778Z,99930.31
2022-09-23T00:14:33.852Z,99927.13
2022-09-23T00:15:39.731Z,99936.25
2022-09-23T00:16:42.567Z,99929.53
2022-09-23T00:17:45.555Z,99932.28
2022-09-23T00:18:50.658Z,99933.84
2022-09-23T00:19:54.351Z,99927.53
2022-09-23T00:20:56.394Z,99932.69
2022-09-23T00:22:01.201Z,99933.88
2022-09-23T00:23:08.071Z,99935.44
2022-09-23T00:24:11.070Z,99932.28
2022-09-23T00:25:13.216Z,99931.50
2022-09-23T00:26:21.009Z,99940.59
2022-09-23T00:27:23.223Z,99931.47
2022-09-23T00:28:25.776Z,99942.59
2022-09-23T00:29:28.845Z,99938.63
2022-09-23T00:30:32.662Z,99929.91
2022-09-23T00:31:37.331Z,99932.28
2022-09-23T00:32:40.369Z,99933.06
2022-09-23T00:33:43.899Z,99935.06
2022-09-23T00:34:45.940Z,99937.84
2022-09-23T00:35:52.036Z,99940.63
2022-09-23T00:36:54.050Z,99929.91
2022-09-23T00:37:56.314Z,99933.06
2022-09-23T00:38:59.654Z,99935.44
2022-09-23T00:40:04.962Z,99931.50
2022-09-23T00:41:08.096Z,99933.06
2022-09-23T00:42:18.919Z,99941.00
2022-09-23T00:43:20.927Z,99937.03
2022-09-23T00:44:43.445Z,99940.59
2022-09-23T00:45:52.087Z,99945.75
2022-09-23T00:46:54.561Z,99941.00
2022-09-23T00:48:06.609Z,99943.38
2022-09-23T00:49:29.609Z,99943.38
2022-09-23T00:50:36.981Z,99946.53
2022-09-23T00:51:48.925Z,99940.63
2022-09-23T00:52:54.711Z,99937.44
2022-09-23T00:53:58.075Z,99943.38
2022-09-23T00:55:08.805Z,99939.41
2022-09-23T00:56:12.138Z,99941.81
2022-09-23T00:57:17.745Z,99939.03
2022-09-23T00:58:27.811Z,99941.81
2022-09-23T00:59:30.283Z,99944.97
2022-09-23T01:00:34.045Z,99941.81
2022-09-23T01:01:43.447Z,99948.53
2022-09-23T01:02:49.328Z,99943.00
2022-09-23T01:03:54.685Z,99940.22
2022-09-23T01:04:56.764Z,99943.38
2022-09-23T01:06:03.948Z,99940.22
2022-09-23T01:07:08.681Z,99941.78
2022-09-23T01:08:13.052Z,99936.25
2022-09-23T01:09:16.543Z,99942.56
2022-09-23T01:10:20.962Z,99948.94
2022-09-23T01:11:50.942Z,99940.22
2022-09-23T01:13:13.559Z,99937.03
2022-09-23T01:14:34.757Z,99944.94
2022-09-23T01:16:14.597Z,99943.38
2022-09-23T01:17:42.019Z,99941.78
2022-09-23T01:19:20.173Z,99943.38
2022-09-23T01:20:59.600Z,99936.25
2022-09-23T01:22:22.109Z,99936.22
2022-09-23T01:23:45.602Z,99940.19
2022-09-23T01:24:53.197Z,99935.44
2022-09-23T01:26:16.912Z,99937.81
2022-09-23T01:28:02.738Z,99929.88
2022-09-23T01:29:28.743Z,99939.41
2022-09-23T01:31:01.878Z,99929.88
2022-09-23T01:32:47.313Z,99941.75
2022-09-23T01:33:59.203Z,99938.56
2022-09-23T01:35:04.272Z,99939.38
2022-09-23T01:36:25.885Z,99937.38
2022-09-23T01:37:28.820Z,99942.56
2022-09-23T01:38:36.587Z,99943.75
2022-09-23T01:40:04.437Z,99948.88
2022-09-23T01:41:16.562Z,99943.34
2022-09-23T01:42:31.426Z,99941.78
2022-09-23T01:43:52.396Z,99944.94
2022-09-23T01:45:09.204Z,99948.09
2022-09-23T01:46:26.264Z,99951.25
2022-09-23T01:47:35.128Z,99950.88
2022-09-23T01:48:43.655Z,99956.81
2022-09-23T01:49:54.481Z,99947.31
2022-09-23T01:51:09.451Z,99956.81
2022-09-23T01:52:41.233Z,99948.09
2022-09-23T01:54:24.577Z,99939.00
2022-09-23T01:55:35.625Z,99946.91
2022-09-23T01:57:07.361Z,99947.31
2022-09-23T01:58:26.003Z,99948.50
2022-09-23T01:59:35.707Z,99939.41
2022-09-23T02:00:43.960Z,99945.72
2022-09-23T02:02:16.267Z,99942.94
2022-09-23T02:03:26.335Z,99941.78
2022-09-23T02:04:39.942Z,99941.38
2022-09-23T02:05:51.144Z,99939.44
2022-09-23T02:06:59.932Z,99937.03
2022-09-23T02:08:14.855Z,99940.59
2022-09-23T02:09:27.078Z,99944.13
2022-09-23T02:10:56.846Z,99950.50
2022-09-23T02:12:06.361Z,99946.53
2022-09-23T02:13:32.765Z,99945.72
2022-09-23T02:15:01.303Z,99956.81
2022-09-23T02:16:20.036Z,99946.53
2022-09-23T02:17:37.287Z,99948.91
2022-09-23T02:19:11.777Z,99945.34
2022-09-23T02:20:24.460Z,99938.59
2022-09-23T02:21:35.163Z,99940.19
2022-09-23T02:22:43.614Z,99941.78
2022-09-23T02:23:52.398Z,99947.31
2022-09-23T02:24:57.601Z,99940.59
2022-09-23T02:26:20.303Z,99946.53
2022-09-23T02:27:51.758Z,99934.25
2022-09-23T02:29:19.455Z,99948.88
2022-09-23T02:30:28.379Z,99949.31
2022-09-23T02:31:34.317Z,99947.31
2022-09-23T02:32:49.152Z,99947.28
2022-09-23T02:34:09.654Z,99945.31
2022-09-23T02:35:26.933Z,99945.72
2022-09-23T02:36:40.095Z,99950.88
2022-09-23T02:38:14.753Z,99939.38
2022-09-23T02:39:20.917Z,99944.13
2022-09-23T02:40:26.097Z,99948.09
2022-09-23T02:41:34.273Z,99933.84
2022-09-23T02:43:03.027Z,99933.84
2022-09-23T02:44:07.913Z,99941.00
2022-09-23T02:45:10.541Z,99946.53
2022-09-23T02:46:13.649Z,99937.81
2022-09-23T02:47:20.823Z,99939.00
2022-09-23T02:48:34.784Z,99929.09
2022-09-23T02:49:37.014Z,99929.88
2022-09-23T02:50:41.528Z,99933.84
2022-09-23T02:52:55.164Z,99933.44
2022-09-23T02:53:39.864Z,99933.03
2022-09-23T02:54:43.747Z,99940.16
2022-09-23T02:55:46.323Z,99935.81
2022-09-23T02:56:50.923Z,99929.88
2022-09-23T02:57:53.635Z,99940.97
2022-09-23T02:58:56.025Z,99939.38
2022-09-23T02:59:58.665Z,99941.34
2022-09-23T03:01:08.395Z,99943.72
2022-09-23T03:02:36.348Z,99945.69
2022-09-23T03:03:49.899Z,99948.09
2022-09-23T03:05:30.588Z,99940.16
2022-09-23T03:06:44.659Z,99938.59
2022-09-23T03:07:58.919Z,99942.94
2022-09-23T03:09:19.118Z,99948.88
2022-09-23T03:10:44.020Z,99941.72
2022-09-23T03:11:53.431Z,99943.72
2022-09-23T03:13:05.835Z,99936.59
2022-09-23T03:14:24.297Z,99943.34
2022-09-23T03:15:52.009Z,99944.16
2022-09-23T03:17:07.107Z,99941.34
2022-09-23T03:18:45.932Z,99936.22
2022-09-23T03:20:01.969Z,99942.19
2022-09-23T03:21:14.829Z,99939.00
2022-09-23T03:22:28.279Z,99935.44
2022-09-23T03:23:38.386Z,99952.06
2022-09-23T03:24:45.503Z,99954.44
2022-09-23T03:25:52.540Z,99951.25
2022-09-23T03:26:56.274Z,99948.50
2022-09-23T03:28:01.440Z,99949.69
2022-09-23T03:29:09.521Z,99944.97
2022-09-23T03:30:13.319Z,99948.50
2022-09-23T03:31:16.557Z,99951.25
2022-09-23T03:32:23.664Z,99948.91
2022-09-23T03:33:46.725Z,99957.63
2022-09-23T03:35:01.298Z,99948.13
2022-09-23T03:36:28.139Z,99944.53
2022-09-23T03:37:33.394Z,99942.56
2022-09-23T03:38:40.341Z,99948.91
2022-09-23T03:39:48.065Z,99950.88
2022-09-23T03:40:54.383Z,99950.09
2022-09-23T03:42:01.897Z,99944.16
2022-09-23T03:43:05.286Z,99943.38
2022-09-23T03:44:09.907Z,99945.75
2022-09-23T03:45:18.599Z,99941.38
2022-09-23T03:46:20.731Z,99939.03
2022-09-23T03:47:25.342Z,99941.78
2022-09-23T03:48:27.584Z,99941.78
2022-09-23T03:49:35.374Z,99936.63
2022-09-23T03:50:39.943Z,99936.25
2022-09-23T03:51:44.705Z,99928.69
2022-09-23T03:52:49.058Z,99925.56
2022-09-23T03:53:52.872Z,99923.97
2022-09-23T03:54:54.995Z,99930.28
2022-09-23T03:55:57.422Z,99921.19
2022-09-23T03:57:00.945Z,99921.97
2022-09-23T03:58:03.488Z,99925.56
2022-09-23T03:59:05.868Z,99926.72
2022-09-23T04:00:08.466Z,99914.84
2022-09-23T04:01:14.919Z,99917.22
2022-09-23T04:02:17.923Z,99925.16
2022-09-23T04:03:19.913Z,99921.97
2022-09-23T04:04:22.432Z,99923.56
2022-09-23T04:05:24.477Z,99927.13
2022-09-23T04:06:26.462Z,99920.41
2022-09-23T04:07:28.428Z,99925.94
2022-09-23T04:08:31.490Z,99921.19
2022-09-23T04:09:34.955Z,99921.97
2022-09-23T04:10:41.286Z,99923.94
2022-09-23T04:11:43.427Z,99920.41
2022-09-23T04:12:46.503Z,99916.44
2022-09-23T04:13:50.675Z,99919.59
2022-09-23T04:14:52.777Z,99915.25
2022-09-23T04:15:54.865Z,99910.09
2022-09-23T04:16:57.665Z,99912.47
2022-09-23T04:18:03.269Z,99915.63
2022-09-23T04:19:05.337Z,99918.03
2022-09-23T04:20:09.124Z,99913.66
2022-09-23T04:21:11.565Z,99912.06
2022-09-23T04:22:14.188Z,99910.06
2022-09-23T04:23:16.562Z,99910.88
2022-09-23T04:24:18.803Z,99905.75
2022-09-23T04:25:21.397Z,99912.84
2022-09-23T04:26:26.054Z,99911.25
2022-09-23T04:27:28.101Z,99909.28
2022-09-23T04:28:30.133Z,99896.63
2022-09-23T04:29:32.237Z,99902.94
2022-09-23T04:30:34.314Z,99899.78
2022-09-23T04:31:36.906Z,99902.16
2022-09-23T04:32:39.463Z,99899.38
2022-09-23T04:33:41.501Z,99891.06
2022-09-23T04:34:44.165Z,99892.25
2022-09-23T04:35:52.972Z,99888.28
2022-09-23T04:36:55.131Z,99881.94
2022-09-23T04:37:57.406Z,99883.91
2022-09-23T04:38:59.702Z,99887.06
2022-09-23T04:40:03.419Z,99887.44
2022-09-23T04:41:09.802Z,99882.31
2022-09-23T04:42:12.312Z,99884.69
2022-09-23T04:43:16.454Z,99878.38
2022-09-23T04:44:19.092Z,99878.34
2022-09-23T04:45:21.171Z,99882.31
2022-09-23T04:46:23.746Z,99872.38
2022-09-23T04:47:26.239Z,99866.41
2022-09-23T04:48:29.587Z,99867.19
2022-09-23T04:49:32.699Z,99864.78
2022-09-23T04:50:34.632Z,99860.44
2022-09-23T04:51:36.618Z,99864.78
2022-09-23T04:52:38.587Z,99870.75
2022-09-23T04:53:42.899Z,99866.00
2022-09-23T04:54:44.895Z,99867.22
2022-09-23T04:55:47.515Z,99877.50
2022-09-23T04:56:49.632Z,99873.53
2022-09-23T04:57:52.014Z,99879.88
2022-09-23T04:58:54.489Z,99883.44
2022-09-23T04:59:59.582Z,99876.69
2022-09-23T05:01:15.187Z,99871.94
2022-09-23T05:02:19.900Z,99877.47
2022-09-23T05:03:24.931Z,99886.22
2022-09-23T05:04:27.511Z,99876.66
2022-09-23T05:05:31.108Z,99881.47
2022-09-23T05:06:35.597Z,99882.22
2022-09-23T05:07:37.701Z,99881.84
2022-09-23T05:08:40.679Z,99885.00
2022-09-23T05:09:42.641Z,99884.66
2022-09-23T05:10:44.607Z,99884.59
2022-09-23T05:11:46.827Z,99886.56
2022-09-23T05:12:52.448Z,99884.16
2022-09-23T05:13:58.487Z,99878.16
2022-09-23T05:15:00.812Z,99887.69
2022-09-23T05:16:06.308Z,99882.09
2022-09-23T05:17:08.859Z,99884.97
2022-09-23T05:18:10.856Z,99877.41
2022-09-23T05:19:13.777Z,99882.97
2022-09-23T05:20:18.579Z,99875.78
2022-09-23T05:21:24.049Z,99879.41
2022-09-23T05:22:26.952Z,99876.63
2022-09-23T05:23:32.120Z,99871.06
2022-09-23T05:24:34.190Z,99871.88
2022-09-23T05:25:38.341Z,99872.66
2022-09-23T05:26:40.853Z,99873.44
2022-09-23T05:27:43.910Z,99859.56
2022-09-23T05:28:46.906Z,99879.81
2022-09-23T05:29:50.055Z,99878.16
2022-09-23T05:30:52.259Z,99876.53
2022-09-23T05:31:54.406Z,99873.75
2022-09-23T05:33:04.520Z,99884.38
2022-09-23T05:34:07.040Z,99875.19
2022-09-23T05:35:09.202Z,99883.47
2022-09-23T05:36:12.216Z,99880.31
2022-09-23T05:37:14.377Z,99878.69
2022-09-23T05:38:16.914Z,99878.69
2022-09-23T05:39:19.324Z,99880.25
2022-09-23T05:40:23.781Z,99873.47
2022-09-23T05:41:26.958Z,99879.03
2022-09-23T05:42:29.298Z,99875.81
2022-09-23T05:43:33.660Z,99872.91
2022-09-23T05:44:35.925Z,99876.84
2022-09-23T05:45:37.898Z,99867.13
2022-09-23T05:46:41.381Z,99871.50
2022-09-23T05:47:44.154Z,99875.59
2022-09-23T05:48:48.751Z,99874.00
2022-09-23T05:49:59.707Z,99876.31
2022-09-23T05:51:03.624Z,99881.97
2022-09-23T05:52:05.623Z,99884.38
2022-09-23T05:53:07.843Z,99883.59
2022-09-23T05:54:10.082Z,99880.44
2022-09-23T05:55:14.528Z,99887.53
2022-09-23T05:56:19.654Z,99885.16
2022-09-23T05:57:22.074Z,99880.38
2022-09-23T05:58:24.811Z,99888.66
2022-09-23T05:59:29.835Z,99884.16
2022-09-23T06:00:31.988Z,99898.19
2022-09-23T06:01:36.846Z,99884.94
2022-09-23T06:02:39.143Z,99883.81
2022-09-23T06:03:41.579Z,99876.25
2022-09-23T06:04:44.012Z,99882.16
2022-09-23T06:05:47.080Z,99881.38
2022-09-23T06:06:51.162Z,99875.38
2022-09-23T06:07:53.524Z,99879.19
2022-09-23T06:08:55.616Z,99876.16
2022-09-23T06:09:57.903Z,99880.28
2022-09-23T06:11:07.306Z,99878.34
2022-09-23T06:12:09.654Z,99878.94
2022-09-23T06:13:13.189Z,99876.63
2022-09-23T06:14:17.615Z,99879.69
2022-09-23T06:15:19.813Z,99879.59
2022-09-23T06:16:21.901Z,99867.31
2022-09-23T06:17:24.262Z,99872.34
2022-09-23T06:18:26.555Z,99869.66
2022-09-23T06:19:53.623Z,99863.97
2022-09-23T06:20:55.617Z,99869.97
2022-09-23T06:21:58.206Z,99865.38
2022-09-23T06:23:10.531Z,99869.16
2022-09-23T06:24:17.820Z,99871.78
2022-09-23T06:25:23.310Z,99860.53
2022-09-23T06:26:25.589Z,99867.41
2022-09-23T06:27:30.437Z,99866.41
2022-09-23T06:28:34.342Z,99864.06
2022-09-23T06:29:36.452Z,99873.97
2022-09-23T06:30:40.063Z,99875.94
2022-09-23T06:31:43.929Z,99878.44
2022-09-23T06:32:52.277Z,99875.38
2022-09-23T06:34:04.996Z,99876.03
2022-09-23T06:35:24.812Z,99887.22
2022-09-23T06:36:40.577Z,99889.16
2022-09-23T06:37:45.259Z,99894.00
2022-09-23T06:38:49.549Z,99893.81
2022-09-23T06:39:52.154Z,99899.41
2022-09-23T06:40:56.089Z,99900.56
2022-09-23T06:41:58.089Z,99896.69
2022-09-23T06:43:03.169Z,99900.88
2022-09-23T06:44:06.286Z,99895.84
2022-09-23T06:45:13.463Z,99898.75
2022-09-23T06:46:17.562Z,99898.94
2022-09-23T06:47:19.977Z,99894.22
2022-09-23T06:48:24.266Z,99888.66
2022-09-23T06:49:27.527Z,99894.44
2022-09-23T06:50:29.801Z,99879.16
2022-09-23T06:51:32.304Z,99891.09
2022-09-23T06:52:36.847Z,99879.34
2022-09-23T06:53:39.548Z,99877.34
2022-09-23T06:54:41.541Z,99878.84
2022-09-23T06:55:44.213Z,99871.16
2022-09-23T06:56:48.687Z,99881.22
2022-09-23T06:57:51.217Z,99876.09
2022-09-23T06:58:53.629Z,99882.38
2022-09-23T06:59:56.052Z,99877.50
2022-09-23T07:01:07.331Z,99874.06
2022-09-23T07:02:09.852Z,99879.22
2022-09-23T07:03:12.351Z,99868.06
2022-09-23T07:04:14.826Z,99880.72
2022-09-23T07:05:17.444Z,99872.31
2022-09-23T07:06:19.578Z,99871.88
2022-09-23T07:07:21.601Z,99869.53
2022-09-23T07:08:25.142Z,99872.78
2022-09-23T07:09:28.404Z,99875.72
2022-09-23T07:10:32.461Z,99881.72
2022-09-23T07:11:35.325Z,99878.53
2022-09-23T07:12:43.982Z,99871.38
2022-09-23T07:13:56.759Z,99872.16
2022-09-23T07:14:59.535Z,99871.44
2022-09-23T07:16:04.667Z,99867.47
2022-09-23T07:17:08.049Z,99876.69
2022-09-23T07:18:10.384Z,99877.44
2022-09-23T07:19:12.961Z,99877.84
2022-09-23T07:21:40.980Z,99884.94
2022-09-23T07:24:01.027Z,99867.56
2022-09-23T07:25:07.745Z,99876.75
2022-09-23T07:26:13.749Z,99867.56
2022-09-23T07:27:23.065Z,99869.19
2022-09-23T07:28:30.578Z,99871.75
2022-09-23T07:29:46.524Z,99872.81
2022-09-23T07:31:00.119Z,99876.00
2022-09-23T07:32:13.778Z,99871.25
2022-09-23T07:33:31.029Z,99870.19
2022-09-23T07:34:34.954Z,99864.34
2022-09-23T07:35:41.338Z,99862.56
2022-09-23T07:36:44.801Z,99860.97
2022-09-23T07:37:48.391Z,99869.69
2022-09-23T07:38:51.691Z,99858.56
2022-09-23T07:39:56.282Z,99869.72
2022-09-23T07:41:08.571Z,99865.06
2022-09-23T07:42:17.155Z,99861.09
2022-09-23T07:43:22.663Z,99870.97
2022-09-23T07:44:26.396Z,99866.69
2022-09-23T07:45:30.000Z,99864.31
2022-09-23T07:47:55.661Z,99876.28
2022-09-23T07:49:02.203Z,99868.75
2022-09-23T07:50:08.415Z,99869.84
2022-09-23T07:51:33.381Z,99870.00
2022-09-23T07:53:59.074Z,99864.66
2022-09-23T07:55:20.248Z,99858.72
2022-09-23T07:56:28.887Z,99865.81
2022-09-23T07:57:36.640Z,99867.00
2022-09-23T07:58:42.303Z,99865.72
2022-09-23T07:59:45.648Z,99867.34
2022-09-23T08:02:09.600Z,99864.91
2022-09-23T08:03:12.361Z,99856.13
2022-09-23T08:05:51.744Z,99856.81
2022-09-23T08:07:00.993Z,99858.69
2022-09-23T08:08:08.068Z,99853.50
2022-09-23T08:09:15.060Z,99857.31
2022-09-23T08:10:21.520Z,99857.56
2022-09-23T08:11:25.683Z,99857.19
2022-09-23T08:12:37.101Z,99860.50
2022-09-23T08:13:46.867Z,99854.56
2022-09-23T08:14:51.035Z,99858.63
2022-09-23T08:15:55.674Z,99843.63
2022-09-23T08:17:01.243Z,99858.47
2022-09-23T08:18:03.860Z,99866.31
2022-09-23T08:19:08.447Z,99853.56
2022-09-23T08:20:32.922Z,99858.16
2022-09-23T08:21:41.906Z,99860.69
2022-09-23T08:22:44.707Z,99860.13
2022-09-23T08:25:04.741Z,99853.44
2022-09-23T08:26:18.051Z,99861.63
2022-09-23T08:27:23.725Z,99853.53
2022-09-23T08:28:26.597Z,99850.16
2022-09-23T08:29:30.328Z,99845.66
2022-09-23T08:30:34.382Z,99855.22
2022-09-23T08:31:39.025Z,99853.00
2022-09-23T08:32:44.787Z,99849.66
2022-09-23T08:33:53.258Z,99850.47
2022-09-23T08:34:57.596Z,99849.56
2022-09-23T08:36:04.123Z,99848.03
2022-09-23T08:37:18.093Z,99854.31
2022-09-23T08:38:22.203Z,99854.41
2022-09-23T08:39:27.152Z,99852.16
2022-09-23T08:40:35.256Z,99849.50
2022-09-23T08:42:08.365Z,99858.63
2022-09-23T08:43:37.850Z,99863.56
2022-09-23T08:44:51.110Z,99861.94
2022-09-23T08:45:58.579Z,99857.97
2022-09-23T08:47:20.976Z,99857.56
2022-09-23T08:54:32.098Z,99871.91
2022-09-23T08:55:46.842Z,99866.34
2022-09-23T08:58:25.277Z,99875.34
2022-09-23T08:59:50.935Z,99873.72
2022-09-23T09:04:23.619Z,99869.97
2022-09-23T09:05:38.279Z,99863.16
2022-09-23T09:06:53.629Z,99858.25
2022-09-23T09:08:03.513Z,99858.91
2022-09-23T09:09:25.080Z,99862.66
2022-09-23T09:10:43.429Z,99851.59
2022-09-23T09:11:52.280Z,99856.84
2022-09-23T09:13:07.860Z,99847.84
2022-09-23T09:14:29.153Z,99844.47
2022-09-23T09:15:38.031Z,99846.72
2022-09-23T09:17:11.479Z,99847.16
2022-09-23T09:18:22.626Z,99849.13
2022-09-23T09:19:56.937Z,99841.88
2022-09-23T09:21:15.841Z,99841.47
2022-09-23T09:22:45.899Z,99838.69
2022-09-23T09:24:03.565Z,99840.47
2022-09-23T09:25:35.803Z,99830.75
2022-09-23T09:26:42.650Z,99836.63
2022-09-23T09:27:56.749Z,99842.19
2022-09-23T09:30:48.643Z,99826.59
2022-09-23T09:31:55.513Z,99817.84
2022-09-23T09:33:27.644Z,99815.53
2022-09-23T09:34:45.633Z,99825.47
2022-09-23T09:36:09.741Z,99823.66
2022-09-23T09:37:41.662Z,99826.72
2022-09-23T09:38:48.720Z,99825.91
2022-09-23T09:39:51.449Z,99814.69
2022-09-23T09:40:56.959Z,99813.19
2022-09-23T09:42:03.020Z,99819.22
2022-09-23T09:43:07.915Z,99807.09
2022-09-23T09:44:27.619Z,99815.84
2022-09-23T09:45:58.045Z,99806.25
2022-09-23T09:47:22.156Z,99812.31
2022-09-23T09:48:55.092Z,99808.56
2022-09-23T09:50:21.179Z,99814.22
2022-09-23T09:51:25.973Z,99817.50
2022-09-23T09:52:30.408Z,99803.13
2022-09-23T09:54:53.483Z,99809.75
2022-09-23T09:56:09.790Z,99807.44
2022-09-23T09:57:33.687Z,99809.28
2022-09-23T09:58:51.622Z,99811.16
2022-09-23T09:59:54.729Z,99817.25
2022-09-23T10:01:00.675Z,99825.72
2022-09-23T10:02:31.291Z,99826.44
2022-09-23T10:03:46.381Z,99818.50
2022-09-23T10:05:01.506Z,99821.09
2022-09-23T10:06:15.393Z,99813.38
2022-09-23T10:07:26.999Z,99819.59
2022-09-23T10:08:37.044Z,99817.31
2022-09-23T10:11:19.770Z,99811.09
2022-09-23T10:12:24.176Z,99811.25
2022-09-23T10:13:29.955Z,99811.06
2022-09-23T10:14:36.184Z,99813.88
2022-09-23T10:15:45.558Z,99816.66
2022-09-23T10:17:06.075Z,99819.22
2022-09-23T10:18:30.705Z,99819.81
2022-09-23T10:19:39.892Z,99815.66
2022-09-23T10:20:43.673Z,99819.09
2022-09-23T10:21:57.110Z,99819.22
2022-09-23T10:23:07.379Z,99817.72
2022-09-23T10:24:22.948Z,99810.47
2022-09-23T10:25:26.880Z,99814.56
2022-09-23T10:26:34.239Z,99806.75
2022-09-23T10:27:37.782Z,99816.91
2022-09-23T10:29:01.683Z,99809.94
2022-09-23T10:30:07.788Z,99806.25
2022-09-23T10:31:14.575Z,99806.56
2022-09-23T10:32:31.276Z,99813.94
2022-09-23T10:35:14.188Z,99811.72
2022-09-23T10:36:19.325Z,99815.19
2022-09-23T10:37:39.308Z,99813.56
2022-09-23T10:38:42.363Z,99807.16
2022-09-23T10:40:03.272Z,99810.53
2022-09-23T10:41:36.973Z,99803.41
2022-09-23T10:45:22.609Z,99804.94
2022-09-23T10:46:39.245Z,99800.78
2022-09-23T10:48:01.148Z,99788.03
2022-09-23T10:49:26.675Z,99791.19
2022-09-23T10:50:50.049Z,99784.03
2022-09-23T10:52:15.995Z,99784.41
2022-09-23T10:53:30.262Z,99779.00
2022-09-23T10:54:46.062Z,99784.28
2022-09-23T10:56:09.816Z,99778.06
2022-09-23T10:57:47.168Z,99782.78
2022-09-23T10:59:15.479Z,99772.66
2022-09-23T11:00:58.987Z,99774.75
2022-09-23T11:04:18.291Z,99765.22
2022-09-23T11:05:58.344Z,99762.91
2022-09-23T11:07:15.754Z,99769.91
2022-09-23T11:08:37.616Z,99763.34
2022-09-23T11:09:53.809Z,99769.53
2022-09-23T11:12:51.419Z,99759.69
2022-09-23T11:14:01.922Z,99762.66
2022-09-23T11:17:10.844Z,99756.72
2022-09-23T11:19:02.689Z,99755.25
2022-09-23T11:20:42.349Z,99755.41
2022-09-23T11:22:24.155Z,99757.09
2022-09-23T11:24:09.523Z,99755.97
2022-09-23T11:25:37.346Z,99754.38
2022-09-23T11:26:58.006Z,99748.34
2022-09-23T11:28:31.899Z,99754.88
2022-09-23T11:31:44.189Z,99763.00
2022-09-23T11:33:17.989Z,99753.78
2022-09-23T11:35:05.500Z,99759.13
2022-09-23T11:36:25.756Z,99754.34
2022-09-23T11:37:43.455Z,99755.16
2022-09-23T11:38:51.398Z,99751.97
2022-09-23T11:40:04.481Z,99754.28
2022-09-23T11:41:24.699Z,99745.47
2022-09-23T11:42:41.410Z,99741.97
2022-09-23T11:44:05.010Z,99736.88
2022-09-23T11:48:46.744Z,99725.00
2022-09-23T11:55:22.213Z,99749.41
2022-09-23T11:56:43.368Z,99748.56
2022-09-23T11:58:01.878Z,99752.69
2022-09-23T11:59:07.767Z,99756.72
2022-09-23T12:00:24.945Z,99751.81
2022-09-23T12:01:45.888Z,99747.97
2022-09-23T12:03:42.368Z,99738.34
2022-09-23T12:05:09.769Z,99745.31
2022-09-23T12:08:07.822Z,99754.75
2022-09-23T12:09:40.914Z,99754.53
2022-09-23T12:10:57.870Z,99755.91
2022-09-23T12:12:13.988Z,99759.34
2022-09-23T12:13:28.543Z,99765.25
2022-09-23T12:16:30.066Z,99764.84
2022-09-23T12:18:04.806Z,99751.41
2022-09-23T12:19:51.189Z,99754.84
2022-09-23T12:21:48.824Z,99754.75
2022-09-23T12:24:26.879Z,99755.47
2022-09-23T12:25:46.895Z,99747.44
2022-09-23T12:26:58.618Z,99748.56
2022-09-23T12:28:33.889Z,99745.03
2022-09-23T12:29:39.166Z,99746.53
2022-09-23T12:30:44.484Z,99735.75
2022-09-23T12:32:00.146Z,99743.19
2022-09-23T12:33:27.362Z,99726.91
2022-09-23T12:34:48.397Z,99729.72
2022-09-23T12:35:56.588Z,99731.84
2022-09-23T12:37:07.107Z,99725.88
2022-09-23T12:39:47.765Z,99717.09
2022-09-23T12:40:53.926Z,99714.78
2022-09-23T12:42:04.902Z,99710.41
2022-09-23T12:43:32.764Z,99715.09
2022-09-23T12:44:48.485Z,99715.28
2022-09-23T12:45:52.049Z,99721.06
2022-09-23T12:47:31.718Z,99713.56
2022-09-23T12:49:01.386Z,99725.63
2022-09-23T12:54:15.050Z,99716.69
2022-09-23T12:55:22.418Z,99712.13
2022-09-23T12:56:28.755Z,99707.22
2022-09-23T12:57:41.523Z,99713.09
2022-09-23T12:58:44.706Z,99706.41
2022-09-23T12:59:56.596Z,99706.69
2022-09-23T13:01:19.508Z,99705.69
2022-09-23T13:04:27.900Z,99699.53
2022-09-23T13:05:50.174Z,99694.03
2022-09-23T13:07:09.929Z,99701.75
2022-09-23T13:09:42.771Z,99707.84
2022-09-23T13:12:32.179Z,99702.31
2022-09-23T13:13:49.130Z,99699.25
2022-09-23T13:14:58.579Z,99707.50
2022-09-23T13:16:27.121Z,99704.41
2022-09-23T13:17:33.886Z,99702.91
2022-09-23T13:19:31.681Z,99699.34
2022-09-23T13:20:38.744Z,99701.72
2022-09-23T13:21:47.767Z,99704.19
2022-09-23T13:25:47.330Z,99706.69
2022-09-23T13:26:55.226Z,99707.31
2022-09-23T13:28:06.926Z,99705.78
2022-09-23T13:30:37.933Z,99712.78
2022-09-23T13:33:16.147Z,99708.38
2022-09-23T13:34:24.281Z,99705.41
2022-09-23T13:36:51.418Z,99699.94
2022-09-23T13:37:58.369Z,99697.69
2022-09-23T13:43:43.034Z,99690.63
2022-09-23T13:44:46.715Z,99693.03
2022-09-23T13:45:50.827Z,99697.31
2022-09-23T13:49:42.386Z,99691.47
2022-09-23T13:50:55.912Z,99687.22
2022-09-23T13:52:00.833Z,99682.84
2022-09-23T13:54:50.905Z,99686.78
2022-09-23T13:58:54.825Z,99677.28
2022-09-23T14:01:44.671Z,99683.78
2022-09-23T14:02:53.565Z,99681.69
2022-09-23T14:03:58.149Z,99684.13
2022-09-23T14:06:44.651Z,99680.22
2022-09-23T14:07:54.185Z,99679.41
2022-09-23T14:13:03.372Z,99680.25
2022-09-23T14:14:12.681Z,99665.94
2022-09-23T14:15:18.296Z,99674.47
2022-09-23T14:20:28.802Z,99664.69
2022-09-23T14:21:45.505Z,99667.44
2022-09-23T14:28:04.093Z,99661.94
2022-09-23T14:29:17.750Z,99653.25
2022-09-23T14:34:51.408Z,99655.19
2022-09-23T14:44:40.133Z,99663.94
2022-09-23T14:47:36.506Z,99654.88
2022-09-23T14:53:49.455Z,99650.53
2022-09-23T14:56:26.391Z,99646.59
2022-09-23T14:57:44.409Z,99652.09
2022-09-23T15:03:26.653Z,99641.13
2022-09-23T15:06:04.099Z,99636.78
2022-09-23T15:10:13.349Z,99640.78
2022-09-23T15:14:37.937Z,99632.06
2022-09-23T15:19:19.183Z,99639.69
2022-09-23T15:20:38.448Z,99633.78
2022-09-23T15:21:53.607Z,99638.16
2022-09-23T15:27:05.304Z,99643.38
2022-09-23T15:29:40.855Z,99643.38
2022-09-23T15:57:03.157Z,99635.53
2022-09-23T16:23:23.534Z,99633.94
2022-09-23T16:32:48.851Z,99626.09
2022-09-23T16:35:31.345Z,99625.75
2022-09-23T16:38:13.997Z,99622.56
2022-09-23T16:43:28.402Z,99620.22
2022-09-23T16:49:18.065Z,99614.31
2022-09-23T16:54:25.958Z,99608.44
2022-09-23T16:55:29.955Z,99609.59
2022-09-23T17:01:42.069Z,99599.78
2022-09-23T17:10:06.439Z,99579.50
2022-09-23T17:11:32.182Z,99575.91
2022-09-23T17:12:41.809Z,99588.22
2022-09-23T17:20:32.184Z,99591.47
2022-09-23T17:41:21.696Z,99559.88
2022-09-23T17:47:04.317Z,99569.47
2022-09-23T18:08:11.913Z,99554.44
2022-09-23T18:09:17.956Z,99552.88
2022-09-23T18:13:56.723Z,99554.84
2022-09-23T18:39:24.932Z,99524.91
2022-09-23T18:47:44.614Z,99518.16
2022-09-23T18:57:39.388Z,99505.88
2022-09-23T18:59:00.230Z,99505.06
2022-09-23T19:12:23.421Z,99485.59
2022-09-23T19:20:02.986Z,99489.63
2022-09-23T19:22:56.395Z,99481.72
2022-09-23T19:24:20.101Z,99481.66
2022-09-23T19:27:27.863Z,99488.81
2022-09-23T19:34:59.053Z,99468.91
2022-09-23T19:36:22.213Z,99475.31
2022-09-23T19:40:21.348Z,99465.84
2022-09-23T20:10:47.208Z,99412.16
2022-09-23T20:20:09.406Z,99399.09
2022-09-23T20:50:02.248Z,99373.72